createdAt,value
2023-02-27T00:00:06.874Z,102.86
2023-02-27T00:01:06.957Z,101.11
2023-02-27T00:02:07.060Z,107.90
2023-02-27T00:03:07.101Z,113.11
2023-02-27T00:04:07.234Z,105.51
2023-02-27T00:05:07.219Z,104.18
2023-02-27T00:06:07.321Z,111.20
2023-02-27T00:07:07.363Z,101.45
2023-02-27T00:08:07.450Z,100.42
2023-02-27T00:09:07.602Z,105.89
2023-02-27T00:10:07.596Z,118.47
2023-02-27T00:11:07.657Z,135.17
2023-02-27T00:12:07.725Z,146.40
2023-02-27T00:13:07.809Z,141.07
2023-02-27T00:14:07.888Z,160.74
2023-02-27T00:15:07.932Z,176.62
2023-02-27T00:16:08.023Z,164.27
2023-02-27T00:17:08.065Z,173.91
2023-02-27T00:18:08.158Z,188.21
2023-02-27T00:19:08.213Z,184.11
2023-02-27T00:20:08.291Z,192.84
2023-02-27T00:21:08.336Z,206.29
2023-02-27T00:22:08.410Z,219.60
2023-02-27T00:23:08.456Z,230.13
2023-02-27T00:24:08.537Z,222.37
2023-02-27T00:25:08.595Z,228.75
2023-02-27T00:26:08.619Z,250.02
2023-02-27T00:27:08.687Z,235.98
2023-02-27T00:28:08.739Z,250.00
2023-02-27T00:29:08.869Z,248.59
2023-02-27T00:30:08.864Z,220.05
2023-02-27T00:31:09.065Z,233.29
2023-02-27T00:32:09.051Z,247.16
2023-02-27T00:33:09.029Z,249.01
2023-02-27T00:34:09.060Z,250.63
2023-02-27T00:35:09.152Z,231.46
2023-02-27T00:36:09.141Z,239.19
2023-02-27T00:37:09.191Z,232.70
2023-02-27T00:38:09.229Z,254.51
2023-02-27T00:39:09.256Z,245.73
2023-02-27T00:40:09.306Z,243.69
2023-02-27T00:41:09.334Z,237.31
2023-02-27T00:42:09.387Z,238.89
2023-02-27T00:43:09.447Z,235.95
2023-02-27T00:44:09.472Z,235.09
2023-02-27T00:45:09.533Z,230.19
2023-02-27T00:46:09.548Z,233.62
2023-02-27T00:47:09.565Z,222.90
2023-02-27T00:48:09.656Z,234.81
2023-02-27T00:49:09.731Z,218.85
2023-02-27T00:50:09.666Z,212.95
2023-02-27T00:51:09.740Z,227.26
2023-02-27T00:52:09.785Z,206.59
2023-02-27T00:53:09.812Z,201.79
2023-02-27T00:54:09.866Z,217.42
2023-02-27T00:55:09.912Z,208.47
2023-02-27T00:56:09.984Z,217.55
2023-02-27T00:57:09.992Z,213.53
2023-02-27T00:58:10.023Z,208.05
2023-02-27T00:59:10.052Z,209.97
2023-02-27T01:00:10.115Z,233.43
2023-02-27T01:12:10.530Z,211.11
2023-02-27T01:13:11.361Z,213.18
2023-02-27T01:14:10.617Z,214.39
2023-02-27T01:15:10.624Z,210.26
2023-02-27T01:16:10.698Z,227.88
2023-02-27T01:35:11.319Z,209.01
2023-02-27T01:36:11.341Z,199.46
2023-02-27T01:37:11.377Z,211.80
2023-02-27T01:38:11.443Z,241.42
2023-02-27T01:39:11.457Z,237.63
2023-02-27T01:40:11.510Z,218.99
2023-02-27T01:41:11.541Z,230.61
2023-02-27T01:42:13.175Z,237.31
2023-02-27T01:43:11.581Z,220.26
2023-02-27T01:44:11.604Z,219.73
2023-02-27T01:45:11.652Z,221.94
2023-02-27T01:46:11.703Z,220.64
2023-02-27T01:48:11.755Z,236.87
2023-02-27T01:49:11.774Z,224.59
2023-02-27T01:50:11.814Z,224.31
2023-02-27T01:51:11.797Z,221.86
2023-02-27T01:52:11.841Z,232.02
2023-02-27T01:53:11.891Z,240.75
2023-02-27T01:54:11.893Z,237.94
2023-02-27T01:55:11.917Z,227.63
2023-02-27T01:56:11.971Z,224.06
2023-02-27T01:57:11.969Z,219.81
2023-02-27T01:58:11.994Z,221.79
2023-02-27T01:59:12.038Z,236.83
2023-02-27T02:00:12.077Z,231.65
2023-02-27T02:01:12.125Z,235.62
2023-02-27T02:02:12.132Z,241.12
2023-02-27T02:03:12.168Z,231.32
2023-02-27T02:04:12.161Z,233.01
2023-02-27T02:05:12.217Z,223.06
2023-02-27T02:06:12.238Z,220.66
2023-02-27T02:07:12.267Z,224.28
2023-02-27T02:08:12.289Z,220.51
2023-02-27T02:09:12.339Z,250.00
2023-02-27T02:10:12.365Z,248.09
2023-02-27T02:11:12.410Z,239.76
2023-02-27T02:12:12.439Z,245.69
2023-02-27T02:13:12.480Z,244.47
2023-02-27T02:14:12.512Z,233.99
2023-02-27T02:15:12.516Z,210.59
2023-02-27T02:16:12.570Z,201.00
2023-02-27T02:17:12.602Z,222.67
2023-02-27T02:18:12.657Z,228.44
2023-02-27T02:19:12.681Z,238.30
2023-02-27T02:20:12.770Z,231.16
2023-02-27T02:21:12.818Z,229.76
2023-02-27T02:22:12.883Z,219.43
2023-02-27T02:23:12.991Z,219.99
2023-02-27T02:24:13.046Z,222.31
2023-02-27T02:25:13.088Z,235.30
2023-02-27T03:49:16.497Z,240.09
2023-02-27T03:50:16.545Z,223.36
2023-02-27T03:51:16.603Z,222.82
2023-02-27T03:52:16.644Z,225.23
2023-02-27T03:53:16.742Z,234.93
2023-02-27T03:54:16.779Z,235.88
2023-02-27T03:55:16.812Z,239.46
2023-02-27T03:56:16.903Z,229.64
2023-02-27T03:57:16.937Z,241.13
2023-02-27T03:58:16.957Z,235.96
2023-02-27T03:59:16.991Z,244.19
2023-02-27T04:00:17.060Z,222.92
2023-02-27T04:01:17.789Z,224.59
2023-02-27T04:02:17.162Z,225.63
2023-02-27T04:03:17.256Z,225.74
2023-02-27T04:04:17.294Z,223.16
2023-02-27T04:05:17.334Z,230.24
2023-02-27T04:06:17.362Z,233.23
2023-02-27T04:07:17.447Z,230.82
2023-02-27T04:08:17.492Z,231.70
2023-02-27T04:09:17.586Z,239.48
2023-02-27T04:10:17.631Z,247.25
2023-02-27T04:11:17.679Z,234.52
2023-02-27T04:12:17.753Z,240.60
2023-02-27T04:13:17.805Z,231.32
2023-02-27T04:14:17.854Z,232.38
2023-02-27T04:15:17.898Z,239.77
2023-02-27T04:16:17.955Z,233.69
2023-02-27T04:17:17.992Z,240.37
2023-02-27T04:18:18.027Z,232.83
2023-02-27T04:19:18.098Z,244.67
2023-02-27T04:20:18.140Z,249.29
2023-02-27T04:21:18.208Z,241.31
2023-02-27T04:22:18.262Z,202.29
2023-02-27T04:23:18.280Z,222.64
2023-02-27T04:24:18.350Z,218.74
2023-02-27T04:25:18.404Z,232.95
2023-02-27T04:26:18.471Z,231.94
2023-02-27T04:27:18.480Z,239.95
2023-02-27T04:28:18.586Z,250.00
2023-02-27T04:29:18.609Z,243.63
2023-02-27T04:30:18.646Z,242.53
2023-02-27T04:31:18.785Z,240.09
2023-02-27T04:32:18.851Z,230.80
2023-02-27T04:33:18.805Z,208.36
2023-02-27T04:34:18.853Z,237.38
2023-02-27T04:35:18.930Z,207.66
2023-02-27T04:36:18.943Z,228.62
2023-02-27T04:37:18.977Z,222.53
2023-02-27T04:38:19.026Z,216.79
2023-02-27T04:39:19.104Z,219.60
2023-02-27T04:40:19.167Z,206.24
2023-02-27T04:41:19.191Z,208.00
2023-02-27T04:42:19.213Z,207.11
2023-02-27T06:00:29.539Z,203.47
2023-02-27T06:01:22.535Z,203.60
2023-02-27T06:02:22.554Z,203.49
2023-02-27T06:03:22.539Z,193.82
2023-02-27T06:04:22.523Z,200.44
2023-02-27T06:05:22.565Z,204.66
2023-02-27T06:06:22.552Z,210.83
2023-02-27T06:07:22.547Z,218.28
2023-02-27T06:08:22.564Z,211.82
2023-02-27T06:09:22.583Z,215.33
2023-02-27T06:10:22.559Z,214.31
2023-02-27T06:11:22.619Z,222.81
2023-02-27T06:12:22.591Z,223.70
2023-02-27T06:13:22.586Z,218.15
2023-02-27T06:14:22.604Z,220.97
2023-02-27T06:15:22.632Z,216.55
2023-02-27T06:16:22.639Z,209.99
2023-02-27T06:17:22.637Z,214.38
2023-02-27T06:18:22.623Z,217.46
2023-02-27T06:19:22.659Z,219.85
2023-02-27T06:20:22.639Z,224.65
2023-02-27T06:21:22.656Z,224.51
2023-02-27T06:22:22.675Z,227.16
2023-02-27T06:23:22.701Z,212.36
2023-02-27T06:24:22.706Z,166.03
2023-02-27T06:25:22.678Z,336.56
2023-02-27T06:26:22.716Z,379.97
2023-02-27T06:27:22.705Z,389.89
2023-02-27T06:28:22.729Z,363.57
2023-02-27T06:29:22.720Z,362.19
2023-02-27T06:30:22.776Z,347.41
2023-02-27T06:31:22.719Z,341.99
2023-02-27T06:32:22.887Z,324.04
2023-02-27T06:33:22.746Z,286.60
2023-02-27T06:34:22.764Z,237.23
2023-02-27T06:35:22.773Z,202.97
2023-02-27T06:36:22.784Z,203.45
2023-02-27T06:37:22.788Z,183.50
2023-02-27T06:38:22.835Z,166.44
2023-02-27T06:39:22.895Z,169.62
2023-02-27T06:40:22.859Z,147.69
2023-02-27T06:41:22.879Z,127.63
2023-02-27T06:42:22.876Z,128.62
2023-02-27T06:43:22.926Z,130.42
2023-02-27T06:44:22.907Z,135.83
2023-02-27T11:30:49.686Z,249.22
2023-02-27T13:03:40.700Z,316.91
2023-02-27T13:04:40.698Z,287.53
2023-02-27T13:05:40.681Z,266.13
2023-02-27T13:06:40.683Z,256.16
2023-02-27T13:07:40.682Z,241.10
2023-02-27T13:08:40.675Z,234.66
2023-02-27T13:09:40.666Z,237.21
2023-02-27T13:10:40.622Z,239.45
2023-02-27T13:11:40.606Z,238.20
2023-02-27T13:12:40.766Z,233.59
2023-02-27T13:13:40.900Z,233.78
2023-02-27T13:14:40.779Z,237.50
2023-02-27T13:15:40.563Z,236.48
2023-02-27T13:16:40.613Z,234.76
2023-02-27T13:17:40.572Z,234.09
2023-02-27T13:18:40.604Z,232.36
2023-02-27T13:19:40.560Z,231.26
2023-02-27T13:20:40.505Z,229.89
2023-02-27T13:21:40.510Z,229.22
2023-02-27T13:22:40.748Z,228.61
2023-02-27T13:23:40.430Z,228.41
2023-02-27T13:24:40.425Z,227.27
2023-02-27T13:25:40.372Z,223.56
2023-02-27T13:26:40.406Z,224.45
2023-02-27T13:27:40.360Z,223.69
2023-02-27T13:28:40.286Z,221.45
2023-02-27T13:29:40.258Z,220.24
2023-02-27T13:30:40.253Z,221.54
2023-02-27T13:31:40.333Z,222.44
2023-02-27T13:32:44.118Z,219.12
2023-02-27T13:33:40.242Z,216.75
2023-02-27T13:34:40.108Z,216.71
2023-02-27T13:35:40.127Z,216.45
2023-02-27T13:36:40.062Z,216.41
2023-02-27T13:37:40.021Z,214.70
2023-02-27T13:38:39.973Z,211.69
2023-02-27T13:39:39.926Z,211.70
2023-02-27T13:40:39.883Z,213.29
2023-02-27T13:41:39.830Z,212.14
2023-02-27T13:42:39.800Z,210.34
2023-02-27T13:43:51.374Z,209.71
2023-02-27T13:44:40.719Z,207.82
2023-02-27T13:45:39.715Z,208.32
2023-02-27T13:46:39.646Z,209.22
2023-02-27T13:47:39.566Z,206.67
2023-02-27T13:48:39.556Z,203.41
2023-02-27T13:49:39.473Z,202.48
2023-02-27T13:50:39.465Z,204.79
2023-02-27T13:51:39.412Z,203.79
2023-02-27T13:52:39.378Z,202.00
2023-02-27T13:53:39.358Z,200.00
2023-02-27T13:54:39.297Z,203.88
2023-02-27T13:55:39.228Z,204.27
2023-02-27T13:56:39.224Z,200.20
2023-02-27T13:57:39.175Z,191.72
2023-02-27T13:58:39.102Z,193.40
2023-02-27T13:59:39.055Z,188.83
2023-02-27T14:00:39.049Z,190.11
2023-02-27T14:01:39.099Z,192.10
2023-02-27T14:02:46.569Z,191.74
2023-02-27T14:03:39.932Z,191.11
2023-02-27T14:04:38.924Z,189.04
2023-02-27T14:05:38.863Z,187.55
2023-02-27T14:06:38.809Z,186.29
2023-02-27T14:07:38.752Z,184.77
2023-02-27T14:08:38.694Z,182.57
2023-02-27T14:09:38.698Z,179.87
2023-02-27T14:10:38.654Z,177.44
2023-02-27T14:11:38.582Z,173.74
2023-02-27T14:12:45.372Z,167.13
2023-02-27T14:13:39.485Z,166.92
2023-02-27T14:14:38.443Z,162.28
2023-02-27T14:15:38.368Z,160.15
2023-02-27T14:16:38.341Z,150.01
2023-02-27T14:17:38.277Z,144.96
2023-02-27T14:18:38.213Z,151.68
2023-02-27T14:19:38.185Z,162.46
2023-02-27T14:20:38.182Z,168.65
2023-02-27T14:21:38.097Z,168.12
2023-02-27T14:22:38.090Z,160.17
2023-02-27T14:23:38.027Z,158.22
2023-02-27T14:24:37.990Z,159.91
2023-02-27T14:25:37.919Z,169.58
2023-02-27T14:26:37.957Z,171.69
2023-02-27T14:27:37.884Z,172.72
2023-02-27T14:28:37.829Z,175.03
2023-02-27T14:29:37.801Z,176.07
2023-02-27T14:30:37.709Z,175.88
2023-02-27T14:31:37.715Z,179.66
2023-02-27T14:32:37.646Z,179.55
2023-02-27T14:33:40.474Z,182.74
2023-02-27T14:34:37.552Z,180.60
2023-02-27T14:35:37.539Z,179.37
2023-02-27T14:36:37.445Z,181.68
2023-02-27T14:37:37.386Z,178.92
2023-02-27T14:38:37.342Z,179.83
2023-02-27T14:39:37.302Z,179.71
2023-02-27T14:40:37.255Z,181.41
2023-02-27T14:41:37.226Z,185.39
2023-02-27T14:42:37.263Z,183.62
2023-02-27T14:43:37.104Z,183.06
2023-02-27T14:44:37.063Z,185.19
2023-02-27T14:45:37.021Z,185.76
2023-02-27T14:46:37.002Z,186.71
2023-02-27T14:47:36.909Z,186.69
2023-02-27T14:48:36.848Z,184.89
2023-02-27T14:49:36.849Z,185.57
2023-02-27T14:50:36.765Z,185.56
2023-02-27T14:51:36.697Z,186.22
2023-02-27T14:52:36.676Z,187.18
2023-02-27T14:53:36.599Z,188.66
2023-02-27T14:54:36.605Z,190.81
2023-02-27T14:55:36.504Z,190.22
2023-02-27T14:56:36.425Z,189.10
2023-02-27T16:33:34.151Z,194.18
2023-02-27T16:34:44.678Z,197.93
2023-02-27T16:35:35.091Z,197.23
2023-02-27T16:36:34.039Z,197.50
2023-02-27T16:37:34.008Z,195.91
2023-02-27T16:38:33.948Z,197.10
2023-02-27T16:39:33.893Z,196.89
2023-02-27T16:40:33.982Z,199.64
2023-02-27T16:41:33.895Z,199.70
2023-02-27T16:42:33.780Z,200.96
2023-02-27T16:43:33.830Z,202.20
2023-02-27T16:44:33.678Z,203.48
2023-02-27T16:45:33.670Z,204.68
2023-02-27T16:46:33.580Z,206.20
2023-02-27T16:47:33.534Z,208.40
2023-02-27T16:48:33.508Z,209.07
2023-02-27T16:49:33.737Z,210.74
2023-02-27T16:50:33.491Z,210.08
2023-02-27T16:51:33.484Z,210.83
2023-02-27T16:52:33.455Z,208.89
2023-02-27T16:53:33.487Z,210.37
2023-02-27T16:54:33.487Z,210.47
2023-02-27T16:55:33.904Z,210.52
2023-02-27T16:56:38.420Z,209.27
2023-02-27T16:57:34.415Z,209.38
2023-02-27T16:58:33.756Z,209.83
2023-02-27T16:59:33.308Z,210.57
2023-02-27T17:00:33.306Z,201.89
2023-02-27T17:03:33.179Z,184.67
2023-02-27T17:04:33.149Z,175.03
2023-02-27T17:05:33.073Z,172.96
2023-02-27T17:06:33.039Z,179.82
2023-02-27T17:07:32.990Z,187.08
2023-02-27T17:08:33.038Z,188.75
2023-02-27T17:09:32.921Z,186.86
2023-02-27T17:10:32.867Z,187.45
2023-02-27T17:11:32.838Z,189.49
2023-02-27T17:12:32.812Z,191.53
2023-02-27T17:13:32.806Z,190.75
2023-02-27T17:14:32.752Z,191.30
2023-02-27T17:15:32.769Z,191.52
2023-02-27T17:16:32.804Z,192.58
2023-02-27T17:17:32.712Z,192.53
2023-02-27T17:18:32.743Z,190.63
2023-02-27T17:19:32.654Z,189.97
2023-02-27T17:20:32.643Z,190.68
2023-02-27T17:21:32.623Z,189.60
2023-02-27T17:22:32.603Z,189.70
2023-02-27T17:23:32.597Z,190.48
2023-02-27T17:24:32.574Z,191.46
2023-02-27T17:25:32.548Z,186.26
2023-02-27T17:26:32.527Z,183.44
2023-02-27T17:27:32.534Z,185.83
2023-02-27T17:28:32.498Z,185.92
2023-02-27T17:29:32.481Z,183.25
2023-02-27T17:30:32.494Z,185.30
2023-02-27T17:31:32.431Z,185.24
2023-02-27T17:32:32.390Z,188.68
2023-02-27T17:33:32.407Z,183.17
2023-02-27T17:34:32.368Z,184.40
2023-02-27T17:35:32.371Z,184.33
2023-02-27T17:36:32.335Z,183.71
2023-02-27T17:37:32.362Z,182.65
2023-02-27T17:38:32.348Z,183.68
2023-02-27T17:39:32.356Z,184.34
2023-02-27T17:40:32.318Z,182.64
2023-02-27T17:41:32.331Z,181.57
2023-02-27T17:42:32.340Z,182.06
2023-02-27T17:43:32.310Z,180.38
2023-02-27T17:44:32.328Z,178.04
2023-02-27T17:45:32.299Z,172.76
2023-02-27T17:46:32.865Z,170.98
2023-02-27T17:47:32.309Z,170.05
2023-02-27T17:48:32.353Z,171.03
2023-02-27T17:49:32.295Z,171.62
2023-02-27T18:38:31.782Z,152.33
2023-02-27T18:39:31.771Z,148.84
2023-02-27T18:40:31.775Z,149.21
2023-02-27T18:41:31.750Z,147.81
2023-02-27T18:42:31.706Z,146.87
2023-02-27T18:43:31.829Z,146.41
2023-02-27T18:44:31.712Z,149.68
2023-02-27T18:45:31.714Z,149.37
2023-02-27T18:46:32.151Z,149.79
2023-02-27T18:47:31.670Z,148.81
2023-02-27T18:48:31.674Z,148.87
2023-02-27T18:49:31.674Z,146.14
2023-02-27T18:50:31.732Z,149.67
2023-02-27T18:51:31.644Z,148.05
2023-02-27T18:52:31.646Z,146.69
2023-02-27T18:53:31.660Z,148.63
2023-02-27T18:54:31.626Z,148.71
2023-02-27T18:55:31.643Z,149.18
2023-02-27T18:56:31.942Z,149.39
2023-02-27T18:57:31.608Z,147.71
2023-02-27T18:58:31.625Z,145.93
2023-02-27T18:59:31.633Z,145.70
2023-02-27T19:00:31.604Z,148.76
2023-02-27T19:01:31.626Z,148.49
2023-02-27T19:02:31.687Z,149.23
2023-02-27T19:03:31.715Z,148.68
2023-02-27T19:04:31.567Z,147.56
2023-02-27T19:05:31.561Z,145.43
2023-02-27T19:06:31.538Z,142.41
2023-02-27T19:07:31.520Z,144.64
2023-02-27T19:08:31.522Z,145.52
2023-02-27T19:09:31.509Z,145.80
2023-02-27T19:10:31.562Z,146.15
2023-02-27T19:11:31.525Z,146.41
2023-02-27T19:12:31.500Z,146.71
2023-02-27T19:13:31.505Z,145.25
2023-02-27T19:14:31.534Z,145.25
2023-02-27T19:15:31.588Z,144.12
2023-02-27T19:16:31.933Z,143.85
2023-02-27T19:17:31.510Z,141.98
2023-02-27T19:18:31.526Z,140.93
2023-02-27T19:19:31.535Z,143.17
2023-02-27T19:20:31.534Z,141.44
2023-02-27T19:21:31.540Z,143.44
2023-02-27T19:22:31.540Z,142.00
2023-02-27T19:23:31.506Z,140.49
2023-02-27T19:24:31.506Z,140.55
2023-02-27T19:25:31.524Z,140.46
2023-02-27T19:26:31.773Z,141.65
2023-02-27T19:27:31.531Z,141.01
2023-02-27T19:28:31.550Z,142.24
2023-02-27T19:29:31.543Z,141.38
2023-02-27T19:30:31.517Z,141.65
2023-02-27T19:31:31.758Z,139.03
2023-02-27T19:32:31.561Z,139.82
2023-02-27T19:33:31.535Z,140.69
2023-02-27T19:34:31.558Z,139.82
2023-02-27T19:35:31.580Z,139.48
2023-02-27T19:36:31.680Z,139.67
2023-02-27T19:37:31.550Z,138.79
2023-02-27T19:38:31.571Z,138.73
2023-02-27T19:39:31.577Z,137.78
2023-02-27T19:40:31.577Z,138.05
2023-02-27T19:41:33.430Z,138.74
2023-02-27T19:42:31.561Z,137.93
2023-02-27T19:43:31.558Z,136.57
2023-02-27T19:44:31.560Z,137.52
2023-02-27T19:45:31.572Z,137.11
2023-02-27T19:46:32.028Z,138.28
2023-02-27T19:47:31.592Z,135.89
2023-02-27T19:48:31.583Z,135.30
2023-02-27T19:49:31.571Z,136.15
2023-02-27T19:50:31.564Z,134.75
2023-02-27T19:51:31.555Z,136.59
2023-02-27T19:52:31.596Z,136.79
2023-02-27T19:53:31.593Z,136.14
2023-02-27T19:54:31.564Z,134.83
2023-02-27T19:55:31.555Z,135.58
2023-02-27T19:56:31.928Z,134.48
2023-02-27T19:57:31.580Z,134.39
2023-02-27T19:58:31.582Z,137.15
2023-02-27T19:59:31.607Z,135.76
2023-02-27T20:00:31.606Z,134.18
2023-02-27T20:01:31.594Z,132.82
2023-02-27T20:02:31.574Z,134.89
2023-02-27T20:03:31.624Z,135.35
2023-02-27T20:04:31.591Z,136.43
2023-02-27T20:05:31.590Z,136.55
2023-02-27T20:06:31.757Z,137.12
2023-02-27T20:07:31.581Z,133.94
2023-02-27T20:08:31.578Z,134.68
2023-02-27T20:09:31.585Z,132.73
2023-02-27T20:10:31.611Z,133.34
2023-02-27T20:11:31.600Z,132.23
2023-02-27T20:12:31.606Z,133.29
2023-02-27T20:13:31.636Z,131.86
2023-02-27T20:14:31.630Z,132.71
2023-02-27T20:15:31.629Z,132.61
2023-02-27T20:16:31.956Z,130.67
2023-02-27T20:17:31.602Z,132.34
2023-02-27T20:18:31.627Z,131.72
2023-02-27T20:19:31.616Z,132.30
2023-02-27T20:20:32.111Z,132.28
2023-02-27T20:21:32.012Z,133.90
2023-02-27T20:22:31.615Z,133.70
2023-02-27T20:23:31.653Z,133.07
2023-02-27T20:24:31.637Z,131.88
2023-02-27T20:25:31.602Z,133.73
2023-02-27T20:26:31.778Z,133.97
2023-02-27T20:27:31.622Z,132.57
2023-02-27T20:28:31.598Z,131.42
2023-02-27T20:29:31.610Z,131.23
2023-02-27T20:30:31.632Z,131.40
2023-02-27T20:31:32.013Z,130.30
2023-02-27T20:32:31.846Z,130.83
2023-02-27T20:33:31.658Z,130.06
2023-02-27T20:34:31.641Z,130.95
2023-02-27T20:35:31.656Z,130.68
2023-02-27T20:36:31.642Z,129.77
2023-02-27T20:37:31.638Z,129.22
2023-02-27T20:38:31.647Z,128.85
2023-02-27T20:39:31.663Z,129.43
2023-02-27T20:40:31.646Z,129.53
2023-02-27T20:41:31.902Z,129.84
2023-02-27T20:42:31.636Z,129.74
2023-02-27T20:43:31.645Z,127.66
2023-02-27T20:44:31.656Z,128.99
2023-02-27T20:45:31.667Z,129.55
2023-02-27T20:46:31.652Z,128.52
2023-02-27T20:47:31.652Z,127.88
2023-02-27T20:48:31.658Z,126.48
2023-02-27T20:49:31.656Z,129.46
2023-02-27T20:50:31.687Z,128.59
2023-02-27T20:51:31.899Z,126.58
2023-02-27T20:52:31.669Z,127.83
2023-02-27T20:53:31.689Z,125.05
2023-02-27T20:54:31.681Z,124.63
2023-02-27T20:55:31.664Z,124.76
2023-02-27T20:56:31.701Z,124.05
2023-02-27T20:57:31.681Z,125.48
2023-02-27T20:58:31.686Z,124.59
2023-02-27T20:59:31.694Z,124.14
2023-02-27T21:00:31.697Z,123.89
2023-02-27T21:01:32.256Z,124.19
2023-02-27T21:02:31.653Z,125.08
2023-02-27T21:03:38.543Z,125.05
2023-02-27T21:04:32.821Z,125.10
2023-02-27T21:05:31.594Z,124.66
2023-02-27T21:06:31.587Z,123.16
2023-02-27T21:07:31.566Z,125.93
2023-02-27T21:08:31.549Z,125.14
2023-02-27T21:09:31.502Z,125.57
2023-02-27T21:10:31.484Z,124.99
2023-02-27T21:11:31.737Z,125.67
2023-02-27T21:12:31.399Z,124.73
2023-02-27T21:13:31.423Z,125.39
2023-02-27T21:14:31.352Z,124.69
2023-02-27T21:15:31.333Z,124.73
2023-02-27T21:17:31.275Z,123.13
2023-02-27T21:18:31.260Z,123.65
2023-02-27T21:19:31.257Z,123.10
2023-02-27T21:20:31.230Z,124.57
2023-02-27T21:21:31.570Z,123.77
2023-02-27T21:22:31.232Z,122.40
2023-02-27T21:23:31.240Z,122.42
2023-02-27T21:24:31.210Z,123.36
2023-02-27T21:25:31.223Z,122.90
2023-02-27T21:26:33.275Z,124.20
2023-02-27T21:27:31.207Z,124.56
2023-02-27T21:28:31.195Z,121.50
2023-02-27T21:29:31.137Z,123.65
2023-02-27T21:30:31.124Z,124.00
2023-02-27T21:31:31.622Z,124.37
2023-02-27T21:32:31.046Z,123.68
2023-02-27T21:33:31.027Z,123.27
2023-02-27T21:34:31.017Z,122.59
2023-02-27T21:35:31.068Z,123.27
2023-02-27T21:36:30.956Z,124.55
2023-02-27T21:37:30.906Z,125.30
2023-02-27T21:38:30.930Z,124.89
2023-02-27T21:39:30.861Z,125.16
2023-02-27T21:40:30.807Z,122.55
2023-02-27T21:41:31.110Z,123.54
2023-02-27T21:42:30.743Z,124.70
2023-02-27T21:43:30.740Z,124.47
2023-02-27T21:44:30.679Z,122.86
2023-02-27T21:45:30.675Z,123.37
2023-02-27T21:46:30.627Z,123.28
2023-02-27T21:47:30.693Z,122.96
2023-02-27T21:48:30.590Z,122.41
2023-02-27T21:49:30.540Z,123.50
2023-02-27T21:50:30.502Z,123.97
2023-02-27T21:51:39.910Z,124.27
2023-02-27T21:52:31.492Z,124.31
2023-02-27T21:53:30.431Z,121.07
2023-02-27T21:54:30.404Z,122.61
2023-02-27T21:55:30.384Z,124.31
2023-02-27T21:56:30.523Z,122.66
2023-02-27T21:57:30.315Z,120.67
2023-02-27T21:58:30.283Z,122.76
2023-02-27T21:59:30.251Z,120.18
2023-02-27T23:12:30.294Z,107.45
2023-02-27T23:13:30.265Z,108.67
2023-02-27T23:14:30.285Z,108.09
2023-02-27T23:15:30.306Z,109.39
2023-02-27T23:16:30.329Z,108.54
2023-02-27T23:17:30.316Z,105.41
2023-02-27T23:18:30.361Z,103.82
2023-02-27T23:19:30.369Z,104.78
2023-02-27T23:20:30.326Z,105.68
2023-02-27T23:21:30.820Z,105.16
2023-02-27T23:22:30.372Z,106.66
2023-02-27T23:23:30.385Z,105.55
2023-02-27T23:24:30.385Z,105.79
2023-02-27T23:25:30.396Z,106.69
2023-02-27T23:26:30.425Z,107.39
2023-02-27T23:27:30.440Z,107.28
2023-02-27T23:28:30.440Z,107.14
